createdAt,value
2019-03-26T00:02:13.394Z,17.23
2019-03-26T00:07:22.226Z,18.87
2019-03-26T00:12:28.299Z,17.03
2019-03-26T00:17:34.683Z,19.23
2019-03-26T00:22:41.583Z,17.47
2019-03-26T00:27:49.929Z,18.43
2019-03-26T00:32:57.725Z,17.73
2019-03-26T00:38:05.625Z,16.80
2019-03-26T00:43:12.218Z,14.03
2019-03-26T00:48:19.417Z,14.00
2019-03-26T00:53:26.274Z,13.80
2019-03-26T00:58:33.699Z,13.73
2019-03-26T01:03:42.963Z,14.17
2019-03-26T01:08:50.506Z,13.07
2019-03-26T01:14:00.009Z,14.70
2019-03-26T01:19:08.368Z,13.83
2019-03-26T01:24:16.987Z,15.50
2019-03-26T01:29:25.209Z,16.00
2019-03-26T01:34:45.247Z,14.87
2019-03-26T01:39:42.962Z,14.10
2019-03-26T01:44:49.941Z,15.67
2019-03-26T01:50:18.696Z,12.73
2019-03-26T01:55:24.781Z,11.97
2019-03-26T02:00:32.274Z,11.37
2019-03-26T02:05:42.669Z,12.43
2019-03-26T02:10:50.058Z,12.83
2019-03-26T02:15:56.134Z,11.57
2019-03-26T02:21:04.726Z,13.57
2019-03-26T02:26:12.734Z,13.60
2019-03-26T02:31:20.678Z,14.50
2019-03-26T02:36:26.819Z,13.73
2019-03-26T02:41:32.954Z,12.43
2019-03-26T02:46:39.893Z,13.13
2019-03-26T02:51:47.290Z,12.10
2019-03-26T02:56:53.931Z,12.47
2019-03-26T03:02:01.577Z,12.30
2019-03-26T03:07:09.541Z,11.23
2019-03-26T03:12:15.576Z,10.87
2019-03-26T03:17:23.762Z,10.30
2019-03-26T03:22:31.068Z,10.27
2019-03-26T03:27:40.007Z,10.17
2019-03-26T03:32:50.201Z,10.23
2019-03-26T03:37:56.763Z,10.70
2019-03-26T03:43:05.338Z,10.97
2019-03-26T03:48:12.905Z,10.60
2019-03-26T03:53:22.186Z,10.73
2019-03-26T03:58:30.189Z,10.93
2019-03-26T04:03:37.397Z,10.83
2019-03-26T04:08:44.066Z,11.47
2019-03-26T04:13:52.796Z,12.63
2019-03-26T04:18:59.393Z,14.10
2019-03-26T04:24:06.581Z,13.47
2019-03-26T04:29:15.163Z,13.20
2019-03-26T04:34:23.353Z,14.07
2019-03-26T04:39:32.629Z,17.27
2019-03-26T04:44:40.657Z,16.73
2019-03-26T04:49:48.726Z,16.60
2019-03-26T04:54:58.076Z,16.33
2019-03-26T05:00:05.639Z,15.53
2019-03-26T05:05:12.691Z,15.70
2019-03-26T05:10:18.868Z,14.43
2019-03-26T05:15:24.847Z,16.17
2019-03-26T05:20:32.144Z,15.87
2019-03-26T05:25:38.205Z,16.60
2019-03-26T05:30:45.632Z,15.53
2019-03-26T05:35:54.247Z,17.00
2019-03-26T05:41:02.376Z,17.73
2019-03-26T05:46:09.975Z,20.80
2019-03-26T05:51:18.000Z,18.87
2019-03-26T05:56:25.613Z,18.03
2019-03-26T06:01:31.583Z,16.43
2019-03-26T06:06:40.017Z,16.67
2019-03-26T06:11:47.682Z,16.33
2019-03-26T06:16:54.543Z,16.80
2019-03-26T06:22:01.197Z,17.20
2019-03-26T06:27:08.294Z,16.63
2019-03-26T06:32:16.117Z,15.90
2019-03-26T06:37:23.473Z,16.50
2019-03-26T06:42:32.057Z,14.77
2019-03-26T06:47:38.952Z,13.80
2019-03-26T06:52:45.840Z,14.03
2019-03-26T06:57:52.726Z,14.17
2019-03-26T07:03:00.661Z,13.30
2019-03-26T07:08:09.079Z,12.50
2019-03-26T07:13:16.490Z,14.30
2019-03-26T07:18:23.391Z,13.20
2019-03-26T07:23:49.923Z,14.03
2019-03-26T07:28:58.560Z,13.20
2019-03-26T07:34:07.175Z,13.43
2019-03-26T07:39:14.759Z,15.43
2019-03-26T07:44:21.662Z,13.80
2019-03-26T07:49:29.371Z,14.17
2019-03-26T07:54:38.665Z,15.03
2019-03-26T07:59:47.101Z,12.47
2019-03-26T08:04:53.178Z,12.27
2019-03-26T08:10:00.874Z,13.23
2019-03-26T08:15:28.164Z,12.50
2019-03-26T08:20:35.449Z,11.57
2019-03-26T08:25:43.397Z,11.07
2019-03-26T08:30:50.666Z,12.17
2019-03-26T08:36:01.158Z,11.23
2019-03-26T08:41:07.520Z,11.43
2019-03-26T08:46:15.030Z,11.07
2019-03-26T08:51:23.048Z,10.90
2019-03-26T08:56:31.466Z,11.97
2019-03-26T09:01:39.296Z,7.63
2019-03-26T09:06:45.268Z,9.93
2019-03-26T09:11:53.459Z,11.47
2019-03-26T09:17:20.599Z,8.30
2019-03-26T09:22:26.639Z,10.43
2019-03-26T09:27:35.282Z,8.40
2019-03-26T09:32:42.359Z,8.17
2019-03-26T09:37:48.437Z,6.77
2019-03-26T09:43:27.649Z,6.37
2019-03-26T09:48:36.525Z,6.90
2019-03-26T09:53:42.600Z,7.07
2019-03-26T09:58:51.333Z,7.10
2019-03-26T10:04:00.593Z,7.00
2019-03-26T10:09:08.366Z,6.70
2019-03-26T10:14:15.622Z,6.40
2019-03-26T10:19:21.679Z,7.43
2019-03-26T10:24:29.616Z,7.40
2019-03-26T10:29:35.668Z,7.00
2019-03-26T10:34:42.268Z,5.93
2019-03-26T10:39:48.324Z,5.83
2019-03-26T10:44:55.985Z,4.70
2019-03-26T10:50:01.998Z,4.57
2019-03-26T10:55:08.193Z,3.20
2019-03-26T11:00:15.670Z,3.97
2019-03-26T11:05:22.773Z,3.40
2019-03-26T11:10:28.745Z,3.90
2019-03-26T11:15:34.621Z,3.40
2019-03-26T11:20:40.548Z,3.80
2019-03-26T11:25:48.895Z,3.10
2019-03-26T11:30:55.296Z,2.63
2019-03-26T11:36:02.321Z,2.97
2019-03-26T11:41:10.000Z,2.90
2019-03-26T11:46:17.013Z,2.97
2019-03-26T11:51:23.787Z,2.70
2019-03-26T11:56:29.779Z,2.63
2019-03-26T12:01:37.996Z,2.90
2019-03-26T12:06:45.606Z,2.97
2019-03-26T12:11:52.183Z,3.07
2019-03-26T12:16:59.714Z,2.73
2019-03-26T12:22:07.903Z,2.80
2019-03-26T12:27:16.428Z,3.20
2019-03-26T12:32:23.196Z,2.70
2019-03-26T12:37:30.226Z,2.50
2019-03-26T12:42:37.100Z,2.50
2019-03-26T12:47:44.535Z,2.27
2019-03-26T12:52:51.435Z,2.43
2019-03-26T12:57:58.624Z,2.13
2019-03-26T13:03:06.536Z,2.07
2019-03-26T13:08:14.860Z,2.50
2019-03-26T13:13:21.046Z,1.70
2019-03-26T13:18:27.009Z,2.30
2019-03-26T13:23:34.004Z,2.77
2019-03-26T13:28:40.824Z,2.27
2019-03-26T13:33:47.645Z,3.10
2019-03-26T13:38:56.017Z,2.73
2019-03-26T13:44:24.133Z,3.77
2019-03-26T13:49:30.691Z,2.43
2019-03-26T13:54:37.716Z,2.70
2019-03-26T13:59:44.468Z,2.53
2019-03-26T14:04:52.700Z,2.97
2019-03-26T14:09:59.638Z,2.50
2019-03-26T14:15:07.313Z,2.80
2019-03-26T14:20:14.937Z,2.80
2019-03-26T14:25:23.037Z,2.33
2019-03-26T14:30:42.178Z,2.97
2019-03-26T14:35:48.922Z,2.80
2019-03-26T14:40:57.657Z,2.57
2019-03-26T14:46:04.346Z,2.50
2019-03-26T14:51:12.462Z,2.80
2019-03-26T14:56:19.349Z,3.50
2019-03-26T15:01:27.878Z,2.73
2019-03-26T15:06:34.891Z,3.03
2019-03-26T15:11:44.859Z,3.27
2019-03-26T15:16:53.376Z,3.43
2019-03-26T15:22:07.942Z,2.70
2019-03-26T15:27:15.401Z,3.40
2019-03-26T15:32:24.349Z,3.40
2019-03-26T15:37:31.713Z,3.57
2019-03-26T15:42:40.511Z,3.10
2019-03-26T15:47:47.334Z,3.20
2019-03-26T15:52:55.763Z,3.23
2019-03-26T15:58:02.653Z,2.43
2019-03-26T16:03:09.251Z,3.20
2019-03-26T16:08:16.444Z,3.07
2019-03-26T16:13:26.760Z,3.20
2019-03-26T16:18:32.650Z,3.80
2019-03-26T16:23:41.294Z,2.50
2019-03-26T16:28:48.501Z,3.80
2019-03-26T16:33:55.308Z,3.40
2019-03-26T16:39:03.688Z,3.63
2019-03-26T16:44:11.962Z,3.90
2019-03-26T16:49:18.555Z,3.90
2019-03-26T16:54:26.004Z,6.30
2019-03-26T16:59:33.569Z,4.30
2019-03-26T17:04:47.025Z,4.00
2019-03-26T17:09:56.537Z,4.60
2019-03-26T17:15:07.086Z,4.30
2019-03-26T17:20:14.556Z,3.80
2019-03-26T17:25:24.425Z,4.03
2019-03-26T17:30:35.497Z,4.03
2019-03-26T17:35:44.040Z,4.33
2019-03-26T17:40:51.680Z,5.07
2019-03-26T17:46:00.116Z,5.90
2019-03-26T17:51:08.494Z,4.63
2019-03-26T17:56:18.254Z,5.00
2019-03-26T18:01:26.076Z,5.10
2019-03-26T18:06:33.489Z,5.50
2019-03-26T18:11:43.140Z,4.60
2019-03-26T18:16:50.888Z,5.50
2019-03-26T18:21:59.197Z,4.10
2019-03-26T18:27:07.289Z,5.60
2019-03-26T18:32:14.302Z,5.93
2019-03-26T18:37:24.874Z,7.10
2019-03-26T18:42:52.167Z,6.97
2019-03-26T18:48:01.692Z,5.83
2019-03-26T18:53:08.268Z,7.13
2019-03-26T18:58:16.515Z,6.87
2019-03-26T19:03:24.120Z,7.10
2019-03-26T19:08:32.790Z,7.40
2019-03-26T19:13:39.674Z,7.50
2019-03-26T19:18:49.144Z,7.27
2019-03-26T19:24:04.149Z,7.40
2019-03-26T19:29:05.682Z,6.87
2019-03-26T19:34:12.462Z,7.87
2019-03-26T19:39:19.848Z,8.13
2019-03-26T19:44:26.971Z,7.43
2019-03-26T19:49:34.122Z,7.70
2019-03-26T19:54:42.811Z,7.33
2019-03-26T19:59:50.972Z,6.67
2019-03-26T20:04:58.110Z,7.00
2019-03-26T20:10:11.823Z,7.50
2019-03-26T20:15:20.871Z,7.33
2019-03-26T20:20:29.358Z,8.97
2019-03-26T20:25:36.522Z,8.47
2019-03-26T20:30:43.840Z,9.93
2019-03-26T20:35:55.745Z,9.17
2019-03-26T20:41:05.840Z,10.20
2019-03-26T20:46:15.791Z,8.43
2019-03-26T20:51:24.251Z,8.37
2019-03-26T20:56:32.133Z,8.13
2019-03-26T21:01:39.936Z,8.73
2019-03-26T21:06:47.191Z,8.80
2019-03-26T21:11:55.740Z,8.53
2019-03-26T21:17:02.568Z,8.13
2019-03-26T21:22:12.227Z,8.37
2019-03-26T21:27:19.475Z,8.50
2019-03-26T21:32:28.166Z,9.73
2019-03-26T21:37:36.649Z,8.70
2019-03-26T21:42:42.561Z,9.20
2019-03-26T21:47:52.148Z,9.20
2019-03-26T21:52:59.004Z,9.57
2019-03-26T21:58:05.912Z,9.80
2019-03-26T22:03:12.398Z,10.03
2019-03-26T22:08:18.770Z,9.40
2019-03-26T22:13:25.558Z,10.13
2019-03-26T22:18:31.426Z,10.73
2019-03-26T22:23:38.428Z,10.80
2019-03-26T22:28:45.335Z,9.90
2019-03-26T22:33:52.323Z,10.10
2019-03-26T22:38:59.034Z,9.47
2019-03-26T22:44:08.059Z,9.50
2019-03-26T22:49:15.248Z,10.17
2019-03-26T22:54:23.154Z,10.53
2019-03-26T22:59:29.682Z,10.30
2019-03-26T23:04:37.630Z,10.50
2019-03-26T23:09:45.640Z,11.47
2019-03-26T23:14:51.548Z,12.40
2019-03-26T23:19:57.148Z,11.30
2019-03-26T23:25:06.112Z,12.00
2019-03-26T23:30:13.901Z,11.87
2019-03-26T23:35:20.714Z,11.73
2019-03-26T23:40:26.371Z,11.27
2019-03-26T23:45:32.140Z,10.70
2019-03-26T23:50:37.688Z,10.23
2019-03-26T23:55:44.346Z,11.37
